Time;durP1;ratioP1;P1;durP2;ratioP2;P2;SDS_P1;SDS_P2;PMS_P1;PMS_P2;Temp;Humidity;BMP_temperature;BMP_pressure;BME280_temperature;BME280_humidity;BME280_pressure;Samples;Min_cycle;Max_cycle;Signal;HPM_P1;HPM_P2
2021/05/20 00:02:21;;;;;;;3.28;1.55;;;;;;;6.38;84.53;95862.72;5094847;28;20054;-75
2021/05/20 00:04:47;;;;;;;2.00;1.40;;;;;;;6.33;84.53;95867.06;5108508;28;20087;-75
2021/05/20 00:07:12;;;;;;;3.17;1.60;;;;;;;6.37;84.40;95860.34;5090563;28;20040;-74
2021/05/20 00:09:38;;;;;;;1.77;1.50;;;;;;;6.26;85.31;95867.19;5095203;28;20055;-75
2021/05/20 00:12:04;;;;;;;3.30;1.50;;;;;;;6.23;86.10;95870.25;5096388;28;20032;-75
2021/05/20 00:14:30;;;;;;;4.05;1.60;;;;;;;6.19;86.41;95869.13;5105846;28;20036;-75
2021/05/20 00:16:55;;;;;;;2.13;1.63;;;;;;;6.27;84.93;95868.78;5090422;28;20048;-74
2021/05/20 00:19:22;;;;;;;1.73;1.48;;;;;;;6.30;84.56;95875.38;5101814;28;20058;-75
2021/05/20 00:21:48;;;;;;;2.38;1.60;;;;;;;6.32;84.84;95871.50;5099276;28;20047;-74
2021/05/20 00:24:14;;;;;;;2.42;1.40;;;;;;;6.28;85.12;95873.00;5089817;28;20055;-74
2021/05/20 00:26:39;;;;;;;2.33;1.60;;;;;;;6.24;85.35;95871.88;5090469;28;20036;-75
2021/05/20 00:29:05;;;;;;;2.58;1.58;;;;;;;6.24;85.58;95866.63;5103128;28;20082;-74
2021/05/20 00:31:31;;;;;;;3.13;1.80;;;;;;;6.24;86.31;95877.09;5106880;28;20063;-74
2021/05/20 00:33:56;;;;;;;2.35;1.50;;;;;;;6.27;85.70;95871.41;5104030;28;20119;-74
2021/05/20 00:36:22;;;;;;;2.92;1.67;;;;;;;6.31;85.66;95877.75;5093936;28;20048;-75
2021/05/20 00:38:48;;;;;;;2.25;1.60;;;;;;;6.35;85.86;95878.88;5099553;28;20046;-75
2021/05/20 00:41:13;;;;;;;2.55;1.77;;;;;;;6.40;85.19;95871.09;5103148;28;20063;-74
2021/05/20 00:43:42;;;;;;;1.40;1.30;;;;;;;6.43;84.78;95874.31;5105690;28;20040;-74
2021/05/20 00:46:07;;;;;;;5.15;1.55;;;;;;;6.39;85.00;95874.78;5103290;28;20040;-74
2021/05/20 00:48:33;;;;;;;2.50;1.70;;;;;;;6.30;86.60;95880.59;5103381;28;20044;-74
2021/05/20 00:50:59;;;;;;;1.80;1.40;;;;;;;6.44;85.18;95875.88;5104616;28;20439;-74
2021/05/20 00:53:25;;;;;;;3.13;1.55;;;;;;;6.48;85.50;95877.00;5104218;28;20075;-74
2021/05/20 00:55:52;;;;;;;2.33;1.67;;;;;;;6.40;85.52;95878.94;5092391;28;20486;-75
2021/05/20 00:58:17;;;;;;;2.05;1.50;;;;;;;6.38;85.29;95883.63;5097294;28;20055;-74
2021/05/20 01:00:43;;;;;;;2.60;1.67;;;;;;;6.36;85.65;95880.44;5090287;28;20036;-74
2021/05/20 01:03:10;;;;;;;2.88;1.60;;;;;;;6.37;85.73;95882.03;5090024;28;20036;-75
2021/05/20 01:05:35;;;;;;;2.20;1.60;;;;;;;6.36;85.77;95875.22;5099979;28;20036;-74
2021/05/20 01:08:01;;;;;;;2.13;1.58;;;;;;;6.32;86.11;95884.56;5105216;28;20122;-74
2021/05/20 01:10:27;;;;;;;2.45;1.55;;;;;;;6.38;85.72;95883.63;5097159;28;20038;-74
2021/05/20 01:12:52;;;;;;;2.67;1.77;;;;;;;6.36;86.39;95880.44;5100600;28;20407;-75
2021/05/20 01:15:22;;;;;;;3.67;1.80;;;;;;;6.35;86.75;95878.88;5110044;28;20183;-74
2021/05/20 01:17:52;;;;;;;1.98;1.48;;;;;;;6.28;87.04;95877.41;5102330;28;20407;-74
2021/05/20 01:20:23;;;;;;;2.22;1.50;;;;;;;6.30;86.07;95881.38;5102602;28;20040;-74
2021/05/20 01:22:49;;;;;;;3.47;1.80;;;;;;;6.30;86.43;95884.00;5095134;28;20047;-74
2021/05/20 01:25:15;;;;;;;2.78;1.80;;;;;;;6.31;87.07;95885.59;5090147;28;20040;-74
2021/05/20 01:27:44;;;;;;;2.90;1.60;;;;;;;6.28;86.40;95883.44;5089868;28;20032;-75
2021/05/20 01:30:11;;;;;;;2.85;1.67;;;;;;;6.31;86.18;95888.19;5107210;28;20040;-75
2021/05/20 01:32:37;;;;;;;1.92;1.38;;;;;;;6.33;86.66;95886.13;5100072;28;20493;-76
2021/05/20 01:35:05;;;;;;;4.43;1.60;;;;;;;6.28;87.37;95883.44;5107226;28;20071;-75
2021/05/20 01:37:31;;;;;;;2.78;1.75;;;;;;;6.24;87.60;95882.31;5109756;28;20039;-75
2021/05/20 01:39:56;;;;;;;3.92;1.52;;;;;;;6.28;87.32;95888.66;5110921;28;20501;-74
2021/05/20 01:42:22;;;;;;;2.25;1.60;;;;;;;6.30;88.25;95891.84;5111230;28;20118;-75
2021/05/20 01:44:48;;;;;;;2.95;1.50;;;;;;;6.37;86.90;95891.72;5108706;28;20036;-75
2021/05/20 01:47:14;;;;;;;2.13;1.50;;;;;;;6.32;87.47;95896.81;5096618;28;20064;-74
2021/05/20 01:49:39;;;;;;;1.73;1.48;;;;;;;6.38;86.43;95891.47;5096989;28;20068;-75
2021/05/20 01:52:05;;;;;;;2.53;1.50;;;;;;;6.38;86.15;95896.69;5106938;28;20039;-74
2021/05/20 01:54:30;;;;;;;3.10;1.90;;;;;;;6.28;87.49;95893.91;5110665;28;20462;-74
2021/05/20 01:56:56;;;;;;;4.18;1.50;;;;;;;6.35;86.40;95894.56;5109225;28;20114;-75
2021/05/20 01:59:21;;;;;;;1.73;1.40;;;;;;;6.36;87.61;95896.13;5104554;28;20047;-75
2021/05/20 02:01:47;;;;;;;1.50;1.40;;;;;;;6.30;86.92;95891.06;5099606;28;20036;-74
2021/05/20 02:04:13;;;;;;;1.90;1.45;;;;;;;6.40;86.43;95902.47;5112491;28;20390;-74
2021/05/20 02:06:38;;;;;;;1.85;1.58;;;;;;;6.35;87.05;95902.41;5110098;28;20031;-74
2021/05/20 02:09:05;;;;;;;3.17;1.40;;;;;;;6.34;86.57;95903.41;5101910;28;20048;-74
2021/05/20 02:11:31;;;;;;;2.70;1.38;;;;;;;6.30;87.15;95902.28;5095362;28;20032;-74
2021/05/20 02:13:57;;;;;;;2.00;1.55;;;;;;;6.37;86.49;95897.72;5108237;28;20425;-73
2021/05/20 02:16:22;;;;;;;2.00;1.25;;;;;;;6.39;85.82;95894.88;5105650;28;20047;-74
2021/05/20 02:18:48;;;;;;;2.83;1.70;;;;;;;6.32;85.41;95895.03;5104831;28;20497;-74
2021/05/20 02:21:14;;;;;;;2.05;1.52;;;;;;;6.26;85.94;95895.94;5093986;28;20505;-74
2021/05/20 02:23:39;;;;;;;1.63;1.30;;;;;;;6.21;85.79;95888.00;5109608;28;20031;-74
2021/05/20 02:26:05;;;;;;;3.40;1.52;;;;;;;6.09;86.84;95898.47;5097204;28;20032;-74
2021/05/20 02:28:31;;;;;;;3.35;1.40;;;;;;;6.02;86.70;95890.78;5108956;28;20101;-73
2021/05/20 02:30:57;;;;;;;2.22;1.38;;;;;;;5.97;86.76;95888.06;5092454;28;20513;-74
2021/05/20 02:33:22;;;;;;;1.52;1.20;;;;;;;5.97;87.12;95887.25;5095963;28;20048;-74
2021/05/20 02:35:48;;;;;;;2.05;1.50;;;;;;;5.87;86.78;95887.81;5092715;28;20400;-74
2021/05/20 02:38:13;;;;;;;1.40;1.27;;;;;;;5.86;87.29;95891.44;5091235;28;20036;-73
2021/05/20 02:40:39;;;;;;;1.88;1.40;;;;;;;5.89;87.25;95885.78;5109005;28;20072;-73
2021/05/20 02:43:05;;;;;;;1.60;1.35;;;;;;;5.95;86.66;95890.09;5107367;28;20404;-73
2021/05/20 02:45:31;;;;;;;3.67;1.50;;;;;;;5.90;86.77;95893.41;5097571;28;20456;-74
2021/05/20 02:47:57;;;;;;;2.92;1.63;;;;;;;5.84;87.39;95893.50;5103531;28;20130;-74
2021/05/20 02:50:23;;;;;;;4.60;1.52;;;;;;;5.76;87.46;95899.06;5108018;28;20043;-74
2021/05/20 02:52:49;;;;;;;1.67;1.40;;;;;;;5.79;87.30;95890.78;5094842;28;20032;-74
2021/05/20 02:55:20;;;;;;;1.60;1.40;;;;;;;5.75;88.04;95889.63;5100513;28;20089;-73
2021/05/20 02:57:49;;;;;;;2.80;1.50;;;;;;;5.77;87.72;95887.63;5091937;28;20051;-74
2021/05/20 03:00:20;;;;;;;1.30;1.20;;;;;;;5.82;87.68;95895.53;5100383;28;20043;-74
2021/05/20 03:02:51;;;;;;;2.20;1.30;;;;;;;5.92;87.07;95893.16;5109871;27;20046;-73
2021/05/20 03:05:18;;;;;;;2.30;1.52;;;;;;;5.93;87.05;95893.94;5104244;28;20108;-74
2021/05/20 03:07:44;;;;;;;1.95;1.30;;;;;;;5.89;87.07;95898.84;5102583;28;20043;-74
2021/05/20 03:10:09;;;;;;;1.63;1.30;;;;;;;5.98;86.43;95904.53;5091507;28;20040;-73
2021/05/20 03:12:35;;;;;;;2.35;1.30;;;;;;;5.96;86.73;95896.91;5106300;28;20032;-74
2021/05/20 03:15:02;;;;;;;1.52;1.33;;;;;;;5.97;87.55;95908.94;5111639;28;20046;-73
2021/05/20 03:17:28;;;;;;;2.15;1.33;;;;;;;5.87;87.96;95903.50;5106931;28;20039;-73
2021/05/20 03:19:53;;;;;;;1.50;1.40;;;;;;;5.80;87.61;95908.03;5100211;28;20051;-74
2021/05/20 03:22:19;;;;;;;4.05;1.50;;;;;;;5.70;88.28;95903.38;5101363;28;20046;-73
2021/05/20 03:24:44;;;;;;;1.17;1.13;;;;;;;5.69;88.02;95902.59;5105558;28;20092;-74
2021/05/20 03:27:10;;;;;;;2.70;1.50;;;;;;;5.65;87.84;95896.25;5105254;28;20087;-75
2021/05/20 03:29:35;;;;;;;4.63;1.50;;;;;;;5.74;87.38;95904.53;5109911;28;20423;-75
2021/05/20 03:32:01;;;;;;;2.08;1.33;;;;;;;5.75;87.54;95900.09;5104698;28;20123;-74
2021/05/20 03:34:27;;;;;;;2.00;1.23;;;;;;;5.71;86.86;95900.56;5091326;28;20040;-75
2021/05/20 03:36:53;;;;;;;2.45;1.50;;;;;;;5.67;87.28;95899.41;5100075;28;20042;-74
2021/05/20 03:39:18;;;;;;;1.90;1.38;;;;;;;5.67;87.66;95896.81;5097945;28;20081;-75
2021/05/20 03:41:44;;;;;;;4.00;1.38;;;;;;;5.67;87.39;95899.41;5103704;28;20126;-74
2021/05/20 03:44:10;;;;;;;2.10;1.33;;;;;;;5.69;87.09;95897.38;5104112;27;20043;-75
2021/05/20 03:46:35;;;;;;;2.38;1.33;;;;;;;5.72;86.75;95898.75;5107511;28;20059;-74
2021/05/20 03:49:01;;;;;;;5.13;1.67;;;;;;;5.70;87.08;95898.97;5109393;28;20067;-75
2021/05/20 03:51:26;;;;;;;1.83;1.45;;;;;;;5.71;86.52;95903.16;5109390;28;20066;-75
2021/05/20 03:53:52;;;;;;;1.95;1.30;;;;;;;5.68;87.90;95906.22;5107046;28;20119;-75
2021/05/20 03:56:18;;;;;;;1.63;1.25;;;;;;;5.76;86.84;95906.91;5100985;28;20039;-74
2021/05/20 03:58:43;;;;;;;1.63;1.33;;;;;;;5.77;86.87;95903.28;5097819;28;20505;-73
2021/05/20 04:01:09;;;;;;;3.45;1.38;;;;;;;5.83;87.23;95907.59;5093645;28;20043;-74
2021/05/20 04:03:35;;;;;;;1.95;1.13;;;;;;;5.86;86.92;95910.53;5109640;28;20044;-74
2021/05/20 04:06:04;;;;;;;2.13;1.20;;;;;;;5.90;87.08;95918.69;5104580;28;20051;-75
2021/05/20 04:08:30;;;;;;;2.03;1.20;;;;;;;6.03;85.85;95920.31;5104875;28;20042;-74
2021/05/20 04:10:56;;;;;;;1.85;1.27;;;;;;;6.14;86.03;95923.94;5105595;28;20036;-74
2021/05/20 04:13:37;;;;;;;1.30;1.20;;;;;;;6.26;85.40;95916.84;5109824;28;20043;-74
2021/05/20 04:16:04;;;;;;;2.05;1.25;;;;;;;6.30;84.83;95917.97;5099605;28;20036;-75
2021/05/20 04:18:30;;;;;;;1.83;1.38;;;;;;;6.33;84.83;95911.50;5091508;28;20512;-74
2021/05/20 04:20:56;;;;;;;3.05;1.30;;;;;;;6.30;85.45;95923.19;5102906;28;20040;-74
2021/05/20 04:23:22;;;;;;;2.42;1.15;;;;;;;6.41;85.28;95925.00;5091401;28;20192;-74
2021/05/20 04:25:48;;;;;;;1.42;1.30;;;;;;;6.44;84.12;95923.75;5090877;28;20043;-73
2021/05/20 04:28:15;;;;;;;2.80;1.48;;;;;;;6.47;84.88;95925.88;5102548;28;20036;-74
2021/05/20 04:30:42;;;;;;;2.97;1.45;;;;;;;6.48;85.31;95931.91;5102343;28;20450;-74
2021/05/20 04:33:08;;;;;;;1.45;1.30;;;;;;;6.46;84.55;95936.56;5102507;28;20044;-73
2021/05/20 04:35:34;;;;;;;3.13;1.50;;;;;;;6.54;84.35;95933.59;5092363;28;20055;-74
2021/05/20 04:38:01;;;;;;;3.22;1.45;;;;;;;6.62;84.73;95935.81;5096636;28;20036;-74
2021/05/20 04:40:27;;;;;;;1.40;1.30;;;;;;;6.64;84.17;95939.03;5092263;28;20050;-74
2021/05/20 04:42:52;;;;;;;1.80;1.45;;;;;;;6.64;84.50;95939.03;5094705;28;20036;-74
2021/05/20 04:45:18;;;;;;;2.67;1.45;;;;;;;6.67;85.18;95938.53;5107547;28;20088;-75
2021/05/20 04:47:44;;;;;;;2.38;1.50;;;;;;;6.68;84.91;95940.16;5101085;28;20043;-74
2021/05/20 04:50:12;;;;;;;4.63;1.70;;;;;;;6.75;85.10;95951.25;5104805;28;20039;-74
2021/05/20 04:52:38;;;;;;;3.38;1.50;;;;;;;6.86;83.83;95948.81;5106382;28;20485;-74
2021/05/20 04:55:04;;;;;;;1.83;1.50;;;;;;;6.79;84.10;95950.78;5103760;28;20043;-73
2021/05/20 04:57:30;;;;;;;2.70;1.60;;;;;;;6.89;84.70;95956.19;5097289;28;20036;-73
2021/05/20 04:59:55;;;;;;;5.15;1.70;;;;;;;6.93;82.95;95950.25;5095631;28;20398;-74
2021/05/20 05:02:21;;;;;;;1.70;1.38;;;;;;;6.89;83.94;95953.59;5098108;28;20055;-74
2021/05/20 05:04:46;;;;;;;3.33;1.88;;;;;;;6.97;84.10;95963.69;5090052;28;20062;-74
2021/05/20 05:07:12;;;;;;;1.98;1.58;;;;;;;7.02;82.99;95953.28;5089758;28;20051;-74
2021/05/20 05:09:37;;;;;;;5.22;1.90;;;;;;;6.97;82.99;95966.28;5104552;28;20050;-74
2021/05/20 05:12:03;;;;;;;3.88;1.70;;;;;;;6.91;82.90;95975.06;5105282;28;20452;-73
2021/05/20 05:14:29;;;;;;;3.35;1.75;;;;;;;6.85;83.15;95976.00;5103086;28;20458;-73
2021/05/20 05:16:54;;;;;;;1.88;1.50;;;;;;;6.80;82.90;95978.53;5110500;28;20036;-73
2021/05/20 05:19:20;;;;;;;4.50;2.00;;;;;;;6.68;83.72;95971.53;5100439;28;20040;-73
2021/05/20 05:21:46;;;;;;;4.57;1.98;;;;;;;6.59;84.50;95983.38;5097619;28;20152;-74
2021/05/20 05:24:12;;;;;;;2.65;1.52;;;;;;;6.58;84.44;95981.81;5104535;28;20481;-74
2021/05/20 05:26:37;;;;;;;4.53;2.00;;;;;;;6.52;84.37;95982.72;5111858;28;20047;-73
2021/05/20 05:29:03;;;;;;;4.47;2.10;;;;;;;6.51;84.38;95986.38;5113542;28;20043;-72
2021/05/20 05:31:32;;;;;;;2.95;1.80;;;;;;;6.47;84.36;95985.22;5113299;28;20051;-73
2021/05/20 05:33:57;;;;;;;3.15;1.80;;;;;;;6.53;84.37;95989.53;5100980;28;20040;-72
2021/05/20 05:36:24;;;;;;;8.15;1.98;;;;;;;6.58;83.58;95981.81;5113977;28;20059;-73
2021/05/20 05:38:49;;;;;;;1.95;1.50;;;;;;;6.59;84.71;95983.38;5104992;28;20028;-73
2021/05/20 05:41:15;;;;;;;3.33;1.88;;;;;;;6.74;84.55;95988.91;5107562;28;20114;-73
2021/05/20 05:43:41;;;;;;;3.00;1.70;;;;;;;6.89;84.33;95988.38;5113520;28;20040;-73
2021/05/20 05:46:07;;;;;;;3.10;1.90;;;;;;;7.09;83.13;95993.19;5110975;28;20032;-73
2021/05/20 05:48:32;;;;;;;2.67;1.70;;;;;;;7.34;82.37;95989.44;5113997;28;20063;-73
2021/05/20 05:50:58;;;;;;;2.83;1.70;;;;;;;7.63;80.01;95994.63;5111033;28;20044;-72
2021/05/20 05:53:24;;;;;;;2.38;1.70;;;;;;;7.67;80.09;95993.13;5097213;28;20078;-73
2021/05/20 05:55:51;;;;;;;3.15;1.83;;;;;;;7.76;80.39;95999.53;5106867;28;20090;-73
2021/05/20 05:58:18;;;;;;;4.70;1.75;;;;;;;7.98;80.10;96014.53;5114040;28;20081;-72
2021/05/20 06:00:46;;;;;;;2.38;1.52;;;;;;;7.86;77.89;96011.19;5112958;28;20088;-72
2021/05/20 06:03:12;;;;;;;3.65;2.00;;;;;;;7.76;78.63;96023.09;5113695;28;20087;-72
2021/05/20 06:05:38;;;;;;;2.80;1.73;;;;;;;7.92;78.58;96018.09;5094665;28;20497;-74
2021/05/20 06:08:03;;;;;;;2.60;1.80;;;;;;;7.98;77.74;96019.75;5092991;28;20045;-74
2021/05/20 06:10:30;;;;;;;4.85;1.98;;;;;;;7.88;77.70;96020.41;5092851;28;20040;-74
2021/05/20 06:12:55;;;;;;;2.17;1.80;;;;;;;7.82;78.11;96015.34;5112301;28;20036;-74
2021/05/20 06:15:21;;;;;;;3.10;1.70;;;;;;;8.02;77.98;96026.13;5113110;28;20047;-73
2021/05/20 06:17:46;;;;;;;2.50;1.60;;;;;;;8.09;77.99;96026.75;5097090;28;20456;-73
2021/05/20 06:20:12;;;;;;;4.35;1.88;;;;;;;8.28;77.27;96026.47;5113435;28;20043;-73
2021/05/20 06:22:38;;;;;;;1.95;1.50;;;;;;;8.47;76.92;96032.25;5102365;28;20036;-73
2021/05/20 06:25:04;;;;;;;4.07;1.83;;;;;;;8.47;76.65;96022.56;5092729;28;20055;-72
2021/05/20 06:27:30;;;;;;;2.80;1.90;;;;;;;8.53;79.11;96030.50;5105551;28;20036;-73
2021/05/20 06:29:57;;;;;;;2.95;1.98;;;;;;;8.40;76.64;96035.03;5113215;28;20040;-73
2021/05/20 06:32:23;;;;;;;4.22;1.80;;;;;;;8.49;77.64;96031.00;5111514;28;20112;-72
2021/05/20 06:34:49;;;;;;;2.00;1.80;;;;;;;8.43;76.85;96031.94;5105516;28;20409;-73
2021/05/20 06:37:15;;;;;;;2.53;1.63;;;;;;;8.57;75.74;96042.09;5098123;28;20036;-73
2021/05/20 06:39:41;;;;;;;4.20;1.73;;;;;;;8.57;76.32;96037.63;5096634;28;20422;-73
2021/05/20 06:42:10;;;;;;;3.88;1.70;;;;;;;8.79;76.08;96037.66;5100165;28;20043;-73
2021/05/20 06:44:37;;;;;;;2.38;1.70;;;;;;;9.01;75.09;96042.88;5112885;28;20042;-74
2021/05/20 06:47:04;;;;;;;3.33;1.70;;;;;;;8.91;75.87;96037.53;5110679;28;20043;-73
2021/05/20 06:49:30;;;;;;;2.58;1.67;;;;;;;9.03;74.12;96045.25;5112707;28;20108;-73
2021/05/20 06:51:56;;;;;;;2.25;1.60;;;;;;;8.99;74.33;96038.91;5111849;28;20047;-73
2021/05/20 06:54:22;;;;;;;4.15;1.77;;;;;;;8.70;75.48;96039.09;5111647;28;20040;-73
2021/05/20 06:56:52;;;;;;;2.22;1.70;;;;;;;8.47;77.06;96048.78;5096757;28;20405;-72
2021/05/20 07:02:29;;;;;;;2.40;1.73;;;;;;;8.94;73.35;96046.75;5110891;28;20151;-73
2021/05/20 07:05:20;;;;;;;2.38;1.65;;;;;;;9.05;72.49;96051.06;5101097;28;20116;-73
2021/05/20 07:07:46;;;;;;;2.72;1.80;;;;;;;9.05;74.36;96053.69;5092144;28;20460;-75
2021/05/20 07:10:12;;;;;;;3.67;1.77;;;;;;;9.21;73.40;96056.47;5107036;28;20043;-73
2021/05/20 07:12:38;;;;;;;5.50;1.70;;;;;;;9.24;72.66;96055.97;5112091;28;20075;-73
2021/05/20 07:15:04;;;;;;;3.05;1.80;;;;;;;9.28;72.39;96057.06;5110539;28;20036;-72
2021/05/20 07:17:30;;;;;;;3.13;1.52;;;;;;;9.42;71.35;96052.22;5110766;28;20115;-72
2021/05/20 07:19:56;;;;;;;2.65;1.60;;;;;;;9.15;73.88;96053.81;5111765;28;20507;-73
2021/05/20 07:22:22;;;;;;;2.20;1.65;;;;;;;9.12;73.30;96059.56;5112169;28;20047;-72
2021/05/20 07:24:48;;;;;;;2.38;1.75;;;;;;;9.05;71.42;96053.69;5103252;28;20036;-72
2021/05/20 07:27:13;;;;;;;6.82;1.70;;;;;;;8.88;74.13;96058.19;5109191;28;20485;-73
2021/05/20 07:29:39;;;;;;;2.70;1.70;;;;;;;8.65;74.42;96060.06;5112112;28;20035;-73
2021/05/20 07:32:07;;;;;;;1.70;1.50;;;;;;;8.69;72.97;96049.84;5108965;28;20032;-73
2021/05/20 07:34:35;;;;;;;1.98;1.60;;;;;;;8.75;74.38;96054.91;5091678;28;20102;-72
2021/05/20 07:37:01;;;;;;;2.03;1.63;;;;;;;8.96;73.82;96049.91;5091425;28;20048;-72
2021/05/20 07:39:27;;;;;;;3.28;1.73;;;;;;;9.27;72.14;96045.00;5093908;28;20507;-72
2021/05/20 07:41:52;;;;;;;3.72;1.70;;;;;;;9.41;71.32;96046.19;5111701;28;20048;-73
2021/05/20 07:44:18;;;;;;;1.50;1.38;;;;;;;9.49;67.83;96040.47;5110719;28;20056;-72
2021/05/20 07:46:43;;;;;;;3.35;1.60;;;;;;;9.64;70.74;96044.25;5100263;28;20048;-72
2021/05/20 07:49:09;;;;;;;2.70;1.52;;;;;;;9.79;70.57;96031.25;5094228;28;20054;-72
2021/05/20 07:51:35;;;;;;;1.58;1.48;;;;;;;10.33;69.01;96035.59;5111081;28;20088;-73
2021/05/20 07:54:01;;;;;;;1.42;1.30;;;;;;;10.49;66.37;96025.97;5097913;28;20044;-73
2021/05/20 07:56:27;;;;;;;2.03;1.50;;;;;;;10.47;66.87;96022.00;5099300;28;20506;-73
2021/05/20 07:58:53;;;;;;;3.63;1.30;;;;;;;10.53;67.09;96029.66;5097031;28;20035;-73
2021/05/20 08:01:19;;;;;;;1.88;1.50;;;;;;;9.78;67.52;96029.66;5111610;28;20493;-73
2021/05/20 08:03:49;;;;;;;1.48;1.20;;;;;;;9.93;67.82;96025.56;5103637;28;20107;-73
2021/05/20 08:06:24;;;;;;;2.67;1.40;;;;;;;9.91;69.36;96033.72;5110996;28;20043;-73
2021/05/20 08:11:19;;;;;;;4.95;1.40;;;;;;;9.50;73.23;96039.44;5109330;28;20050;-73
2021/05/20 08:13:45;;;;;;;1.65;1.38;;;;;;;9.30;73.30;96044.50;5091124;28;20044;-72
2021/05/20 08:16:11;;;;;;;1.88;1.70;;;;;;;9.27;72.97;96045.00;5093784;28;20054;-72
2021/05/20 08:18:37;;;;;;;1.75;1.30;;;;;;;9.41;73.67;96045.38;5111262;28;20088;-72
2021/05/20 08:21:04;;;;;;;3.75;1.42;;;;;;;9.37;74.10;96050.34;5110327;28;20039;-73
2021/05/20 08:23:32;;;;;;;3.97;1.80;;;;;;;9.53;74.66;96054.69;5093627;28;20446;-73
2021/05/20 08:25:58;;;;;;;2.30;1.55;;;;;;;9.46;73.45;96043.59;5090746;28;20044;-72
2021/05/20 08:28:23;;;;;;;1.92;1.50;;;;;;;9.71;72.64;96044.84;5107434;28;20047;-73
2021/05/20 08:30:49;;;;;;;3.80;1.80;;;;;;;10.09;71.52;96027.28;5110341;28;20550;-73
2021/05/20 08:33:14;;;;;;;3.20;1.40;;;;;;;10.29;70.45;96033.72;5109952;28;20032;-74
2021/05/20 08:35:40;;;;;;;1.98;1.48;;;;;;;10.09;71.82;96029.91;5101836;28;20413;-73
2021/05/20 08:38:06;;;;;;;2.88;1.60;;;;;;;10.11;70.46;96027.03;5090532;28;20807;-73
2021/05/20 08:40:32;;;;;;;1.75;1.50;;;;;;;10.21;69.18;96030.53;5092583;28;20044;-73
2021/05/20 08:42:58;;;;;;;1.88;1.50;;;;;;;10.22;67.83;96033.94;5110373;28;20040;-73
2021/05/20 08:45:26;;;;;;;1.00;1.00;;;;;;;10.24;65.27;96031.81;5114956;28;20046;-73
2021/05/20 08:47:53;;;;;;;1.33;1.20;;;;;;;10.23;65.39;96025.78;5113670;28;20035;-73
2021/05/20 08:50:22;;;;;;;2.10;1.50;;;;;;;10.11;67.76;96033.06;5114744;28;20051;-73
2021/05/20 08:52:48;;;;;;;1.85;1.35;;;;;;;9.92;67.44;96024.00;5113498;28;20110;-72
2021/05/20 08:55:19;;;;;;;2.72;1.55;;;;;;;9.95;70.96;96018.25;5109782;28;20036;-72
2021/05/20 08:57:46;;;;;;;2.58;1.80;;;;;;;9.78;71.33;96029.66;5101373;28;20489;-73
2021/05/20 09:00:16;;;;;;;2.70;1.80;;;;;;;10.22;71.43;96023.41;5113719;28;20040;-73
2021/05/20 09:02:42;;;;;;;4.20;1.80;;;;;;;10.20;71.09;96026.28;5114417;28;20493;-73
2021/05/20 09:05:07;;;;;;;3.03;1.75;;;;;;;10.37;69.89;96025.34;5098360;28;20036;-73
2021/05/20 09:07:36;;;;;;;2.10;1.70;;;;;;;10.66;70.51;96028.41;5094152;28;20207;-73
2021/05/20 09:10:22;;;;;;;3.00;1.80;;;;;;;10.68;70.86;96030.78;5093966;28;20047;-71
2021/05/20 09:12:52;;;;;;;2.75;1.70;;;;;;;10.64;68.00;96034.97;5100223;28;20043;-71
2021/05/20 09:15:34;;;;;;;1.10;1.00;;;;;;;10.11;64.84;96038.31;5108883;28;20085;-72
2021/05/20 09:18:10;;;;;;;6.40;0.80;;;;;;;9.88;65.62;96045.53;5113130;27;20042;-73
2021/05/20 09:20:39;;;;;;;3.17;0.80;;;;;;;9.51;69.39;96051.53;5114254;28;20035;-70
2021/05/20 09:23:08;;;;;;;1.95;1.10;;;;;;;9.00;73.16;96051.00;5114225;28;20076;-71
2021/05/20 09:25:36;;;;;;;0.93;0.93;;;;;;;8.75;76.70;96044.44;5096699;28;20047;-71
2021/05/20 09:28:03;;;;;;;1.33;0.63;;;;;;;8.51;72.29;96043.06;5093745;28;20036;-71
2021/05/20 09:30:30;;;;;;;0.77;0.75;;;;;;;8.70;70.99;96031.22;5113605;28;20044;-71
2021/05/20 09:33:00;;;;;;;1.42;1.00;;;;;;;8.96;69.06;96036.78;5114384;28;20035;-70
2021/05/20 09:35:30;;;;;;;1.55;0.80;;;;;;;9.37;68.28;96034.59;5110526;28;20069;-73
2021/05/20 09:38:06;;;;;;;1.00;0.95;;;;;;;9.52;71.12;96037.38;5111439;28;20068;-74
2021/05/20 09:40:36;;;;;;;1.10;1.00;;;;;;;9.63;72.98;96040.06;5093860;28;20048;-73
2021/05/20 09:43:14;;;;;;;4.15;1.15;;;;;;;9.68;71.93;96030.41;5093864;28;20048;-73
2021/05/20 09:45:40;;;;;;;1.38;1.23;;;;;;;9.65;72.13;96027.47;5107479;28;20040;-73
2021/05/20 09:48:08;;;;;;;1.52;1.20;;;;;;;9.75;71.42;96027.53;5095732;28;20085;-72
2021/05/20 09:51:00;;;;;;;1.10;1.10;;;;;;;9.68;71.72;96029.59;5106484;28;20114;-72
2021/05/20 09:53:27;;;;;;;2.55;1.20;;;;;;;9.65;71.76;96027.47;5111631;28;20047;-72
2021/05/20 09:55:58;;;;;;;1.23;1.10;;;;;;;9.66;71.37;96021.19;5110685;28;20146;-73
2021/05/20 09:58:26;;;;;;;1.23;1.00;;;;;;;9.96;71.16;96025.09;5111814;28;20390;-72
2021/05/20 10:00:57;;;;;;;2.40;1.30;;;;;;;10.31;72.57;96015.84;5112678;28;20612;-72
2021/05/20 10:03:24;;;;;;;1.10;1.00;;;;;;;10.69;69.40;96019.22;5096440;28;20509;-73
2021/05/20 10:05:57;;;;;;;1.85;1.15;;;;;;;11.40;69.15;96009.91;5099533;28;20080;-72
2021/05/20 10:08:26;;;;;;;1.50;1.10;;;;;;;11.60;64.35;96009.91;5106729;28;20043;-73
2021/05/20 10:10:56;;;;;;;1.20;1.10;;;;;;;11.25;64.96;96019.38;5107408;28;20036;-73
2021/05/20 10:13:27;;;;;;;1.02;0.93;;;;;;;11.01;63.20;96013.00;5112358;28;20080;-73
2021/05/20 10:15:54;;;;;;;0.90;0.90;;;;;;;11.00;63.56;96022.72;5112930;28;20043;-72
2021/05/20 10:18:28;;;;;;;2.50;1.30;;;;;;;10.99;64.47;96017.72;5104463;28;20046;-73
2021/05/20 10:21:04;;;;;;;1.10;1.00;;;;;;;11.39;62.26;96005.69;5112654;28;20043;-72
2021/05/20 10:23:30;;;;;;;1.30;0.73;;;;;;;12.08;63.32;96009.69;5113297;28;20085;-72
2021/05/20 10:25:58;;;;;;;1.10;1.00;;;;;;;12.17;60.65;96017.84;5106990;28;20058;-72
2021/05/20 10:28:25;;;;;;;4.45;1.00;;;;;;;12.73;56.93;96019.53;5110499;28;20044;-73
2021/05/20 10:30:53;;;;;;;0.82;0.80;;;;;;;13.19;55.25;96015.88;5113269;28;20110;-72
2021/05/20 10:33:24;;;;;;;0.70;0.70;;;;;;;12.39;56.56;96014.09;5112994;28;20397;-72
2021/05/20 10:35:52;;;;;;;0.88;0.80;;;;;;;12.69;55.82;96009.78;5095556;28;20040;-72
2021/05/20 10:38:34;;;;;;;0.90;0.90;;;;;;;13.68;57.10;96008.97;5100733;28;20409;-73
2021/05/20 10:41:18;;;;;;;2.15;1.27;;;;;;;15.11;51.43;96002.47;5092843;28;20055;-73
2021/05/20 10:43:46;;;;;;;1.85;1.20;;;;;;;15.82;48.99;96005.19;5095980;28;20035;-73
2021/05/20 10:46:14;;;;;;;0.93;0.93;;;;;;;15.73;47.42;96008.47;5112400;28;20040;-73
2021/05/20 10:48:51;;;;;;;1.00;0.90;;;;;;;15.74;46.19;96004.72;5104435;28;20123;-73
2021/05/20 10:51:33;;;;;;;0.85;0.85;;;;;;;15.99;45.66;96005.44;5112408;28;20043;-73
2021/05/20 10:54:05;;;;;;;1.08;1.00;;;;;;;16.33;45.52;96008.81;5112451;28;20043;-73
2021/05/20 10:56:34;;;;;;;1.00;0.93;;;;;;;16.38;43.17;96006.84;5098788;27;20044;-73
2021/05/20 10:59:01;;;;;;;1.17;1.17;;;;;;;16.75;46.02;96005.09;5099244;28;20046;-73
2021/05/20 11:01:27;;;;;;;1.00;1.00;;;;;;;17.22;41.74;95996.19;5097200;28;20040;-73
2021/05/20 11:03:57;;;;;;;0.88;0.88;;;;;;;17.46;40.94;96002.00;5092112;28;20051;-74
2021/05/20 11:06:24;;;;;;;0.80;0.80;;;;;;;17.54;43.64;96005.03;5092476;28;20048;-73
2021/05/20 11:08:50;;;;;;;1.30;0.80;;;;;;;17.58;40.51;95992.72;5095351;28;20036;-73
2021/05/20 11:11:30;;;;;;;1.00;1.00;;;;;;;18.32;40.43;95994.13;5112748;28;20042;-73
2021/05/20 11:13:57;;;;;;;1.10;1.10;;;;;;;18.14;37.34;96004.66;5112093;28;20043;-73
2021/05/20 11:16:33;;;;;;;0.90;0.90;;;;;;;16.31;42.68;95985.22;5112010;28;20047;-72
2021/05/20 11:19:17;;;;;;;0.80;0.80;;;;;;;16.13;42.61;95991.38;5099863;28;20387;-73
2021/05/20 11:21:58;;;;;;;1.67;0.90;;;;;;;14.87;48.12;95987.44;5111547;28;20043;-73
2021/05/20 11:24:38;;;;;;;0.60;0.60;;;;;;;14.32;49.73;95993.03;5111963;28;20458;-72
2021/05/20 11:27:24;;;;;;;0.75;0.75;;;;;;;14.09;52.50;95994.59;5110364;28;20072;-72
2021/05/20 11:29:49;;;;;;;0.70;0.70;;;;;;;14.07;53.75;95991.47;5105353;28;20035;-73
2021/05/20 11:35:16;;;;;;;5.45;1.10;;;;;;;13.62;55.28;95995.00;5111835;28;20046;-72
2021/05/20 11:37:42;;;;;;;3.60;1.58;;;;;;;17.41;45.92;95983.53;5092004;28;20047;-72
2021/05/20 11:40:27;;;;;;;1.13;1.02;;;;;;;17.80;45.84;95974.06;5091350;28;20032;-73
2021/05/20 11:42:53;;;;;;;1.55;1.00;;;;;;;18.34;44.12;95973.28;5110536;28;20497;-73
2021/05/20 11:45:24;;;;;;;0.90;0.90;;;;;;;18.46;39.46;95970.00;5111605;28;20093;-72
2021/05/20 11:47:53;;;;;;;0.70;0.70;;;;;;;16.83;47.66;95963.72;5110483;28;20042;-73
2021/05/20 11:50:21;;;;;;;2.13;1.00;;;;;;;16.86;48.24;95967.69;5109894;28;20036;-73